sensor_id;sensor_type;location;lat;lon;timestamp;P1;durP1;ratioP1;P2;durP2;ratioP2
12968;SDS011;6549;53.128;8.182;2022-09-09T00:01:28;11.10;;;9.10;;
12968;SDS011;6549;53.128;8.182;2022-09-09T00:04:37;11.70;;;8.75;;
12968;SDS011;6549;53.128;8.182;2022-09-09T00:07:41;14.87;;;10.90;;
12968;SDS011;6549;53.128;8.182;2022-09-09T00:10:45;14.20;;;11.05;;
12968;SDS011;6549;53.128;8.182;2022-09-09T00:13:54;12.48;;;10.07;;
12968;SDS011;6549;53.128;8.182;2022-09-09T00:17:00;11.77;;;9.20;;
12968;SDS011;6549;53.128;8.182;2022-09-09T00:23:48;10.50;;;8.65;;
12968;SDS011;6549;53.128;8.182;2022-09-09T00:26:52;10.10;;;8.48;;
12968;SDS011;6549;53.128;8.182;2022-09-09T00:30:20;9.80;;;7.95;;
12968;SDS011;6549;53.128;8.182;2022-09-09T00:33:23;10.70;;;8.63;;
12968;SDS011;6549;53.128;8.182;2022-09-09T00:36:24;12.88;;;10.05;;
12968;SDS011;6549;53.128;8.182;2022-09-09T00:42:41;11.88;;;9.75;;
12968;SDS011;6549;53.128;8.182;2022-09-09T00:52:21;14.55;;;10.73;;
12968;SDS011;6549;53.128;8.182;2022-09-09T00:55:44;14.82;;;10.60;;
12968;SDS011;6549;53.128;8.182;2022-09-09T01:02:14;12.85;;;9.45;;
12968;SDS011;6549;53.128;8.182;2022-09-09T01:12:25;14.00;;;10.27;;
12968;SDS011;6549;53.128;8.182;2022-09-09T01:15:38;15.35;;;12.20;;
12968;SDS011;6549;53.128;8.182;2022-09-09T01:18:46;11.83;;;10.03;;
12968;SDS011;6549;53.128;8.182;2022-09-09T01:22:01;15.40;;;11.77;;
12968;SDS011;6549;53.128;8.182;2022-09-09T01:28:47;11.77;;;9.35;;
12968;SDS011;6549;53.128;8.182;2022-09-09T01:31:54;11.57;;;9.98;;
12968;SDS011;6549;53.128;8.182;2022-09-09T01:34:57;14.45;;;10.23;;
12968;SDS011;6549;53.128;8.182;2022-09-09T01:37:57;10.38;;;8.70;;
12968;SDS011;6549;53.128;8.182;2022-09-09T01:40:57;9.95;;;7.88;;
12968;SDS011;6549;53.128;8.182;2022-09-09T01:43:58;11.48;;;8.65;;
12968;SDS011;6549;53.128;8.182;2022-09-09T01:46:58;15.98;;;10.50;;
12968;SDS011;6549;53.128;8.182;2022-09-09T01:49:59;12.38;;;9.52;;
12968;SDS011;6549;53.128;8.182;2022-09-09T01:53:01;12.02;;;9.60;;
12968;SDS011;6549;53.128;8.182;2022-09-09T01:56:15;12.88;;;10.50;;
12968;SDS011;6549;53.128;8.182;2022-09-09T02:06:12;10.05;;;7.95;;
12968;SDS011;6549;53.128;8.182;2022-09-09T02:09:30;12.02;;;9.73;;
12968;SDS011;6549;53.128;8.182;2022-09-09T02:12:30;16.33;;;12.85;;
12968;SDS011;6549;53.128;8.182;2022-09-09T02:18:55;10.88;;;8.48;;
12968;SDS011;6549;53.128;8.182;2022-09-09T02:22:00;11.82;;;8.65;;
12968;SDS011;6549;53.128;8.182;2022-09-09T02:25:02;9.90;;;8.15;;
12968;SDS011;6549;53.128;8.182;2022-09-09T02:28:06;9.02;;;7.45;;
12968;SDS011;6549;53.128;8.182;2022-09-09T02:31:09;10.75;;;8.55;;
12968;SDS011;6549;53.128;8.182;2022-09-09T02:34:09;10.18;;;8.00;;
12968;SDS011;6549;53.128;8.182;2022-09-09T02:37:13;10.65;;;7.97;;
12968;SDS011;6549;53.128;8.182;2022-09-09T02:40:17;12.00;;;9.20;;
12968;SDS011;6549;53.128;8.182;2022-09-09T02:43:17;14.38;;;10.32;;
12968;SDS011;6549;53.128;8.182;2022-09-09T02:46:23;14.93;;;10.70;;
12968;SDS011;6549;53.128;8.182;2022-09-09T02:56:04;12.93;;;9.52;;
12968;SDS011;6549;53.128;8.182;2022-09-09T02:59:09;14.20;;;10.00;;
12968;SDS011;6549;53.128;8.182;2022-09-09T03:02:10;14.70;;;9.82;;
12968;SDS011;6549;53.128;8.182;2022-09-09T03:05:11;14.45;;;10.77;;
12968;SDS011;6549;53.128;8.182;2022-09-09T03:08:13;17.05;;;11.65;;
12968;SDS011;6549;53.128;8.182;2022-09-09T03:11:13;21.08;;;15.30;;
12968;SDS011;6549;53.128;8.182;2022-09-09T03:14:14;18.95;;;15.15;;
12968;SDS011;6549;53.128;8.182;2022-09-09T03:17:14;17.73;;;13.18;;
12968;SDS011;6549;53.128;8.182;2022-09-09T03:20:14;19.42;;;14.10;;
12968;SDS011;6549;53.128;8.182;2022-09-09T03:23:15;21.35;;;15.48;;
12968;SDS011;6549;53.128;8.182;2022-09-09T03:26:15;23.25;;;17.10;;
12968;SDS011;6549;53.128;8.182;2022-09-09T03:29:15;18.15;;;13.45;;
12968;SDS011;6549;53.128;8.182;2022-09-09T03:32:17;18.17;;;13.75;;
12968;SDS011;6549;53.128;8.182;2022-09-09T03:35:18;20.30;;;13.98;;
12968;SDS011;6549;53.128;8.182;2022-09-09T03:38:19;18.02;;;12.93;;
12968;SDS011;6549;53.128;8.182;2022-09-09T03:41:19;20.90;;;15.68;;
12968;SDS011;6549;53.128;8.182;2022-09-09T03:44:20;22.35;;;15.98;;
12968;SDS011;6549;53.128;8.182;2022-09-09T03:47:21;14.68;;;11.93;;
12968;SDS011;6549;53.128;8.182;2022-09-09T03:50:22;19.00;;;14.93;;
12968;SDS011;6549;53.128;8.182;2022-09-09T03:53:23;16.05;;;12.82;;
12968;SDS011;6549;53.128;8.182;2022-09-09T03:56:24;15.45;;;11.15;;
12968;SDS011;6549;53.128;8.182;2022-09-09T03:59:25;19.55;;;14.93;;
12968;SDS011;6549;53.128;8.182;2022-09-09T04:02:25;19.80;;;15.88;;
12968;SDS011;6549;53.128;8.182;2022-09-09T04:05:25;16.40;;;13.00;;
12968;SDS011;6549;53.128;8.182;2022-09-09T04:08:26;22.98;;;14.88;;
12968;SDS011;6549;53.128;8.182;2022-09-09T04:11:26;15.60;;;12.98;;
12968;SDS011;6549;53.128;8.182;2022-09-09T04:14:27;17.45;;;12.45;;
12968;SDS011;6549;53.128;8.182;2022-09-09T04:17:28;19.52;;;13.57;;
12968;SDS011;6549;53.128;8.182;2022-09-09T04:20:29;14.40;;;11.32;;
12968;SDS011;6549;53.128;8.182;2022-09-09T04:23:30;15.50;;;11.95;;
12968;SDS011;6549;53.128;8.182;2022-09-09T04:26:30;14.80;;;10.23;;
12968;SDS011;6549;53.128;8.182;2022-09-09T04:29:30;13.75;;;10.48;;
12968;SDS011;6549;53.128;8.182;2022-09-09T04:32:32;14.80;;;10.77;;
12968;SDS011;6549;53.128;8.182;2022-09-09T04:35:33;16.43;;;12.00;;
12968;SDS011;6549;53.128;8.182;2022-09-09T04:38:33;13.27;;;9.05;;
12968;SDS011;6549;53.128;8.182;2022-09-09T04:41:34;12.30;;;10.30;;
12968;SDS011;6549;53.128;8.182;2022-09-09T04:44:35;15.02;;;11.68;;
12968;SDS011;6549;53.128;8.182;2022-09-09T04:47:36;13.85;;;9.65;;
12968;SDS011;6549;53.128;8.182;2022-09-09T04:50:36;16.10;;;10.80;;
12968;SDS011;6549;53.128;8.182;2022-09-09T04:53:36;11.23;;;9.20;;
12968;SDS011;6549;53.128;8.182;2022-09-09T04:56:38;13.93;;;10.15;;
12968;SDS011;6549;53.128;8.182;2022-09-09T04:59:38;10.65;;;8.20;;
12968;SDS011;6549;53.128;8.182;2022-09-09T05:02:39;11.30;;;8.48;;
12968;SDS011;6549;53.128;8.182;2022-09-09T05:05:39;7.88;;;6.75;;
12968;SDS011;6549;53.128;8.182;2022-09-09T05:08:40;10.77;;;7.70;;
12968;SDS011;6549;53.128;8.182;2022-09-09T05:11:42;10.45;;;7.68;;
12968;SDS011;6549;53.128;8.182;2022-09-09T05:14:42;14.52;;;10.23;;
12968;SDS011;6549;53.128;8.182;2022-09-09T05:17:43;11.15;;;9.15;;
12968;SDS011;6549;53.128;8.182;2022-09-09T05:20:43;10.95;;;9.57;;
12968;SDS011;6549;53.128;8.182;2022-09-09T05:23:44;13.32;;;8.77;;
12968;SDS011;6549;53.128;8.182;2022-09-09T05:26:45;14.68;;;10.13;;
12968;SDS011;6549;53.128;8.182;2022-09-09T05:29:46;13.30;;;10.27;;
12968;SDS011;6549;53.128;8.182;2022-09-09T05:32:46;14.93;;;9.68;;
12968;SDS011;6549;53.128;8.182;2022-09-09T05:35:47;13.70;;;10.23;;
12968;SDS011;6549;53.128;8.182;2022-09-09T05:38:49;15.50;;;11.93;;
12968;SDS011;6549;53.128;8.182;2022-09-09T05:41:49;15.55;;;10.63;;
12968;SDS011;6549;53.128;8.182;2022-09-09T05:44:51;16.55;;;10.20;;
12968;SDS011;6549;53.128;8.182;2022-09-09T05:47:54;13.98;;;9.98;;
12968;SDS011;6549;53.128;8.182;2022-09-09T05:50:54;19.08;;;13.95;;
12968;SDS011;6549;53.128;8.182;2022-09-09T05:53:55;17.27;;;12.73;;
12968;SDS011;6549;53.128;8.182;2022-09-09T05:56:58;12.82;;;10.35;;
12968;SDS011;6549;53.128;8.182;2022-09-09T05:59:59;13.23;;;8.70;;
12968;SDS011;6549;53.128;8.182;2022-09-09T06:03:00;12.38;;;8.52;;
12968;SDS011;6549;53.128;8.182;2022-09-09T06:06:01;11.65;;;7.32;;
12968;SDS011;6549;53.128;8.182;2022-09-09T06:09:06;13.27;;;7.70;;
12968;SDS011;6549;53.128;8.182;2022-09-09T06:12:09;11.90;;;7.82;;
12968;SDS011;6549;53.128;8.182;2022-09-09T06:15:10;11.57;;;7.20;;
12968;SDS011;6549;53.128;8.182;2022-09-09T06:18:10;11.98;;;7.75;;
12968;SDS011;6549;53.128;8.182;2022-09-09T06:21:17;11.43;;;7.57;;
12968;SDS011;6549;53.128;8.182;2022-09-09T06:24:19;12.27;;;7.32;;
12968;SDS011;6549;53.128;8.182;2022-09-09T06:27:20;8.57;;;6.38;;
12968;SDS011;6549;53.128;8.182;2022-09-09T06:30:21;8.82;;;6.40;;
12968;SDS011;6549;53.128;8.182;2022-09-09T06:33:21;9.57;;;6.40;;
12968;SDS011;6549;53.128;8.182;2022-09-09T06:36:32;12.57;;;7.30;;
12968;SDS011;6549;53.128;8.182;2022-09-09T06:39:33;12.27;;;6.68;;
12968;SDS011;6549;53.128;8.182;2022-09-09T06:42:37;9.07;;;6.45;;
12968;SDS011;6549;53.128;8.182;2022-09-09T06:45:38;8.18;;;5.75;;
12968;SDS011;6549;53.128;8.182;2022-09-09T06:48:39;9.55;;;7.38;;
12968;SDS011;6549;53.128;8.182;2022-09-09T06:51:48;11.38;;;8.40;;
12968;SDS011;6549;53.128;8.182;2022-09-09T06:54:51;8.18;;;6.85;;
12968;SDS011;6549;53.128;8.182;2022-09-09T06:57:54;14.27;;;9.20;;
12968;SDS011;6549;53.128;8.182;2022-09-09T07:01:07;12.45;;;8.38;;
12968;SDS011;6549;53.128;8.182;2022-09-09T07:04:08;11.75;;;8.48;;
12968;SDS011;6549;53.128;8.182;2022-09-09T07:07:11;14.05;;;8.77;;
12968;SDS011;6549;53.128;8.182;2022-09-09T07:13:13;9.48;;;6.82;;
12968;SDS011;6549;53.128;8.182;2022-09-09T07:16:16;10.10;;;7.13;;
12968;SDS011;6549;53.128;8.182;2022-09-09T07:19:18;8.55;;;6.53;;
12968;SDS011;6549;53.128;8.182;2022-09-09T07:22:18;8.60;;;6.47;;
12968;SDS011;6549;53.128;8.182;2022-09-09T07:25:20;9.40;;;6.10;;
12968;SDS011;6549;53.128;8.182;2022-09-09T07:28:21;8.43;;;5.80;;
12968;SDS011;6549;53.128;8.182;2022-09-09T07:31:24;9.07;;;6.30;;
12968;SDS011;6549;53.128;8.182;2022-09-09T07:34:26;7.90;;;6.22;;
12968;SDS011;6549;53.128;8.182;2022-09-09T07:37:26;10.35;;;6.03;;
12968;SDS011;6549;53.128;8.182;2022-09-09T07:40:27;10.82;;;6.97;;
12968;SDS011;6549;53.128;8.182;2022-09-09T07:43:28;10.90;;;6.53;;
12968;SDS011;6549;53.128;8.182;2022-09-09T07:46:28;11.80;;;6.28;;
12968;SDS011;6549;53.128;8.182;2022-09-09T07:49:28;12.02;;;6.65;;
12968;SDS011;6549;53.128;8.182;2022-09-09T07:52:29;10.45;;;6.60;;
12968;SDS011;6549;53.128;8.182;2022-09-09T07:55:29;10.18;;;6.32;;
12968;SDS011;6549;53.128;8.182;2022-09-09T07:58:30;10.45;;;6.28;;
12968;SDS011;6549;53.128;8.182;2022-09-09T08:01:32;8.32;;;5.30;;
12968;SDS011;6549;53.128;8.182;2022-09-09T08:04:37;10.20;;;6.10;;
12968;SDS011;6549;53.128;8.182;2022-09-09T08:07:37;7.85;;;5.65;;
12968;SDS011;6549;53.128;8.182;2022-09-09T08:10:38;11.32;;;6.30;;
12968;SDS011;6549;53.128;8.182;2022-09-09T08:13:39;9.60;;;6.03;;
12968;SDS011;6549;53.128;8.182;2022-09-09T08:16:40;9.38;;;5.93;;
12968;SDS011;6549;53.128;8.182;2022-09-09T08:19:43;9.30;;;5.10;;
12968;SDS011;6549;53.128;8.182;2022-09-09T08:22:44;8.60;;;5.40;;
12968;SDS011;6549;53.128;8.182;2022-09-09T08:25:44;7.40;;;5.30;;
12968;SDS011;6549;53.128;8.182;2022-09-09T08:28:45;8.35;;;4.30;;
12968;SDS011;6549;53.128;8.182;2022-09-09T08:31:46;8.15;;;5.00;;
12968;SDS011;6549;53.128;8.182;2022-09-09T08:34:54;7.55;;;4.82;;
12968;SDS011;6549;53.128;8.182;2022-09-09T08:37:54;7.55;;;4.90;;
12968;SDS011;6549;53.128;8.182;2022-09-09T08:40:57;5.75;;;4.00;;
12968;SDS011;6549;53.128;8.182;2022-09-09T08:48:01;7.25;;;4.05;;
12968;SDS011;6549;53.128;8.182;2022-09-09T08:51:05;7.10;;;3.88;;
12968;SDS011;6549;53.128;8.182;2022-09-09T08:54:07;7.55;;;3.88;;
12968;SDS011;6549;53.128;8.182;2022-09-09T09:00:14;4.10;;;2.45;;
12968;SDS011;6549;53.128;8.182;2022-09-09T09:03:16;4.93;;;3.10;;
12968;SDS011;6549;53.128;8.182;2022-09-09T09:06:35;6.22;;;2.90;;
12968;SDS011;6549;53.128;8.182;2022-09-09T09:09:41;7.05;;;3.50;;
12968;SDS011;6549;53.128;8.182;2022-09-09T09:12:48;6.65;;;3.35;;
12968;SDS011;6549;53.128;8.182;2022-09-09T09:15:51;6.53;;;3.28;;
12968;SDS011;6549;53.128;8.182;2022-09-09T09:18:57;5.25;;;2.80;;
12968;SDS011;6549;53.128;8.182;2022-09-09T09:22:05;5.15;;;3.55;;
12968;SDS011;6549;53.128;8.182;2022-09-09T09:28:22;6.53;;;3.83;;
12968;SDS011;6549;53.128;8.182;2022-09-09T09:31:24;10.90;;;3.90;;
12968;SDS011;6549;53.128;8.182;2022-09-09T09:34:26;6.35;;;4.10;;
12968;SDS011;6549;53.128;8.182;2022-09-09T09:37:29;8.15;;;4.18;;
12968;SDS011;6549;53.128;8.182;2022-09-09T09:40:32;5.68;;;3.90;;
12968;SDS011;6549;53.128;8.182;2022-09-09T09:43:34;4.75;;;3.35;;
12968;SDS011;6549;53.128;8.182;2022-09-09T09:49:36;7.53;;;3.83;;
12968;SDS011;6549;53.128;8.182;2022-09-09T09:52:36;8.50;;;4.50;;
12968;SDS011;6549;53.128;8.182;2022-09-09T09:55:44;6.10;;;3.28;;
12968;SDS011;6549;53.128;8.182;2022-09-09T09:58:50;6.20;;;3.28;;
12968;SDS011;6549;53.128;8.182;2022-09-09T10:01:51;6.17;;;3.50;;
12968;SDS011;6549;53.128;8.182;2022-09-09T10:08:13;6.22;;;3.70;;
12968;SDS011;6549;53.128;8.182;2022-09-09T10:14:27;7.60;;;3.90;;
12968;SDS011;6549;53.128;8.182;2022-09-09T10:35:09;5.55;;;3.50;;
12968;SDS011;6549;53.128;8.182;2022-09-09T10:38:30;7.00;;;4.38;;
12968;SDS011;6549;53.128;8.182;2022-09-09T10:41:51;4.60;;;2.97;;
12968;SDS011;6549;53.128;8.182;2022-09-09T10:55:17;7.93;;;3.42;;
12968;SDS011;6549;53.128;8.182;2022-09-09T10:58:21;4.97;;;3.00;;
12968;SDS011;6549;53.128;8.182;2022-09-09T11:01:30;6.80;;;3.97;;
12968;SDS011;6549;53.128;8.182;2022-09-09T11:04:44;6.63;;;3.45;;
12968;SDS011;6549;53.128;8.182;2022-09-09T11:07:54;6.30;;;3.70;;
12968;SDS011;6549;53.128;8.182;2022-09-09T11:17:56;6.80;;;4.60;;
12968;SDS011;6549;53.128;8.182;2022-09-09T11:21:01;7.75;;;4.80;;
12968;SDS011;6549;53.128;8.182;2022-09-09T11:24:11;10.05;;;4.90;;
12968;SDS011;6549;53.128;8.182;2022-09-09T11:41:02;8.65;;;3.72;;
12968;SDS011;6549;53.128;8.182;2022-09-09T11:44:13;11.90;;;4.93;;
12968;SDS011;6549;53.128;8.182;2022-09-09T11:47:21;7.13;;;3.90;;
12968;SDS011;6549;53.128;8.182;2022-09-09T11:50:39;7.43;;;4.72;;
12968;SDS011;6549;53.128;8.182;2022-09-09T11:56:55;10.52;;;4.78;;
12968;SDS011;6549;53.128;8.182;2022-09-09T11:59:56;8.13;;;4.93;;
12968;SDS011;6549;53.128;8.182;2022-09-09T12:02:57;9.02;;;4.57;;
12968;SDS011;6549;53.128;8.182;2022-09-09T12:05:57;11.02;;;5.28;;
12968;SDS011;6549;53.128;8.182;2022-09-09T12:12:44;9.23;;;5.10;;
12968;SDS011;6549;53.128;8.182;2022-09-09T12:15:49;9.80;;;5.63;;
12968;SDS011;6549;53.128;8.182;2022-09-09T12:18:51;8.57;;;5.47;;
12968;SDS011;6549;53.128;8.182;2022-09-09T12:22:05;9.55;;;5.90;;
12968;SDS011;6549;53.128;8.182;2022-09-09T12:25:23;9.90;;;6.05;;
12968;SDS011;6549;53.128;8.182;2022-09-09T12:32:02;8.70;;;4.97;;
12968;SDS011;6549;53.128;8.182;2022-09-09T12:35:12;9.57;;;5.20;;
12968;SDS011;6549;53.128;8.182;2022-09-09T12:38:35;10.02;;;5.20;;
12968;SDS011;6549;53.128;8.182;2022-09-09T12:41:38;8.50;;;5.10;;
12968;SDS011;6549;53.128;8.182;2022-09-09T12:44:38;9.90;;;5.45;;
12968;SDS011;6549;53.128;8.182;2022-09-09T12:47:40;10.45;;;4.95;;
12968;SDS011;6549;53.128;8.182;2022-09-09T12:50:49;7.93;;;4.85;;
12968;SDS011;6549;53.128;8.182;2022-09-09T12:53:51;7.80;;;5.28;;
12968;SDS011;6549;53.128;8.182;2022-09-09T12:56:52;7.60;;;4.80;;
12968;SDS011;6549;53.128;8.182;2022-09-09T13:00:03;9.07;;;4.90;;
12968;SDS011;6549;53.128;8.182;2022-09-09T13:03:16;7.22;;;4.88;;
12968;SDS011;6549;53.128;8.182;2022-09-09T13:06:35;8.35;;;5.07;;
12968;SDS011;6549;53.128;8.182;2022-09-09T13:09:36;8.52;;;4.43;;
12968;SDS011;6549;53.128;8.182;2022-09-09T13:12:36;9.45;;;4.82;;
12968;SDS011;6549;53.128;8.182;2022-09-09T13:15:37;8.45;;;5.28;;
12968;SDS011;6549;53.128;8.182;2022-09-09T13:18:39;8.43;;;4.35;;
12968;SDS011;6549;53.128;8.182;2022-09-09T13:21:42;11.13;;;4.43;;
12968;SDS011;6549;53.128;8.182;2022-09-09T13:24:42;6.75;;;4.22;;
12968;SDS011;6549;53.128;8.182;2022-09-09T13:27:59;8.50;;;4.35;;
12968;SDS011;6549;53.128;8.182;2022-09-09T13:31:03;7.57;;;4.70;;
12968;SDS011;6549;53.128;8.182;2022-09-09T13:34:13;8.82;;;4.53;;
12968;SDS011;6549;53.128;8.182;2022-09-09T13:37:36;6.55;;;4.25;;
12968;SDS011;6549;53.128;8.182;2022-09-09T13:40:38;7.20;;;3.97;;
12968;SDS011;6549;53.128;8.182;2022-09-09T13:43:44;7.45;;;4.68;;
12968;SDS011;6549;53.128;8.182;2022-09-09T13:46:47;7.85;;;5.05;;
12968;SDS011;6549;53.128;8.182;2022-09-09T13:49:47;11.70;;;4.82;;
12968;SDS011;6549;53.128;8.182;2022-09-09T13:52:48;11.00;;;5.20;;
12968;SDS011;6549;53.128;8.182;2022-09-09T13:55:51;9.52;;;5.13;;
12968;SDS011;6549;53.128;8.182;2022-09-09T13:58:52;8.60;;;4.85;;
12968;SDS011;6549;53.128;8.182;2022-09-09T14:01:52;6.75;;;4.70;;
12968;SDS011;6549;53.128;8.182;2022-09-09T14:04:53;8.85;;;4.97;;
12968;SDS011;6549;53.128;8.182;2022-09-09T14:07:55;7.57;;;4.20;;
12968;SDS011;6549;53.128;8.182;2022-09-09T14:10:55;5.63;;;3.67;;
12968;SDS011;6549;53.128;8.182;2022-09-09T14:13:58;4.22;;;2.88;;
12968;SDS011;6549;53.128;8.182;2022-09-09T14:16:58;8.77;;;3.00;;
12968;SDS011;6549;53.128;8.182;2022-09-09T14:19:58;6.32;;;3.70;;
12968;SDS011;6549;53.128;8.182;2022-09-09T14:22:59;8.05;;;3.10;;
12968;SDS011;6549;53.128;8.182;2022-09-09T14:25:59;6.15;;;3.40;;
12968;SDS011;6549;53.128;8.182;2022-09-09T14:28:59;7.80;;;3.67;;
12968;SDS011;6549;53.128;8.182;2022-09-09T14:32:01;9.88;;;3.70;;
12968;SDS011;6549;53.128;8.182;2022-09-09T14:35:01;7.38;;;3.95;;
12968;SDS011;6549;53.128;8.182;2022-09-09T14:38:03;7.35;;;3.75;;
12968;SDS011;6549;53.128;8.182;2022-09-09T14:44:12;7.82;;;3.97;;
12968;SDS011;6549;53.128;8.182;2022-09-09T14:47:13;8.15;;;3.80;;
12968;SDS011;6549;53.128;8.182;2022-09-09T14:50:13;5.30;;;3.50;;
12968;SDS011;6549;53.128;8.182;2022-09-09T14:53:13;7.35;;;4.35;;
12968;SDS011;6549;53.128;8.182;2022-09-09T14:56:18;3.63;;;3.15;;
12968;SDS011;6549;53.128;8.182;2022-09-09T14:59:21;7.82;;;3.95;;
12968;SDS011;6549;53.128;8.182;2022-09-09T15:02:22;7.65;;;3.60;;
12968;SDS011;6549;53.128;8.182;2022-09-09T15:05:23;6.78;;;3.72;;
12968;SDS011;6549;53.128;8.182;2022-09-09T15:08:24;6.53;;;4.03;;
12968;SDS011;6549;53.128;8.182;2022-09-09T15:11:26;5.47;;;3.75;;
12968;SDS011;6549;53.128;8.182;2022-09-09T15:14:28;7.05;;;4.10;;
12968;SDS011;6549;53.128;8.182;2022-09-09T15:17:28;6.97;;;4.30;;
12968;SDS011;6549;53.128;8.182;2022-09-09T15:20:29;4.88;;;3.42;;
12968;SDS011;6549;53.128;8.182;2022-09-09T15:23:30;7.65;;;4.00;;
12968;SDS011;6549;53.128;8.182;2022-09-09T15:26:31;8.23;;;3.90;;
12968;SDS011;6549;53.128;8.182;2022-09-09T15:29:32;5.88;;;3.50;;
12968;SDS011;6549;53.128;8.182;2022-09-09T15:32:32;7.75;;;3.70;;
12968;SDS011;6549;53.128;8.182;2022-09-09T15:35:34;5.13;;;2.90;;
12968;SDS011;6549;53.128;8.182;2022-09-09T15:38:35;6.95;;;2.90;;
12968;SDS011;6549;53.128;8.182;2022-09-09T15:41:35;5.15;;;2.90;;
12968;SDS011;6549;53.128;8.182;2022-09-09T15:44:39;4.47;;;2.75;;
12968;SDS011;6549;53.128;8.182;2022-09-09T15:47:42;6.60;;;3.13;;
12968;SDS011;6549;53.128;8.182;2022-09-09T15:50:43;4.15;;;2.53;;
12968;SDS011;6549;53.128;8.182;2022-09-09T15:53:44;3.97;;;2.70;;
12968;SDS011;6549;53.128;8.182;2022-09-09T15:56:45;5.00;;;2.75;;
12968;SDS011;6549;53.128;8.182;2022-09-09T15:59:48;3.90;;;2.42;;
12968;SDS011;6549;53.128;8.182;2022-09-09T16:02:48;5.60;;;2.45;;
12968;SDS011;6549;53.128;8.182;2022-09-09T16:05:52;8.15;;;2.33;;
12968;SDS011;6549;53.128;8.182;2022-09-09T16:08:52;4.68;;;2.60;;
12968;SDS011;6549;53.128;8.182;2022-09-09T16:11:57;3.73;;;2.47;;
12968;SDS011;6549;53.128;8.182;2022-09-09T16:15:01;4.50;;;2.40;;
12968;SDS011;6549;53.128;8.182;2022-09-09T16:18:01;5.22;;;2.90;;
12968;SDS011;6549;53.128;8.182;2022-09-09T16:21:02;5.35;;;3.13;;
12968;SDS011;6549;53.128;8.182;2022-09-09T16:24:05;4.78;;;2.83;;
12968;SDS011;6549;53.128;8.182;2022-09-09T16:27:06;5.77;;;2.90;;
12968;SDS011;6549;53.128;8.182;2022-09-09T16:30:07;4.53;;;2.53;;
12968;SDS011;6549;53.128;8.182;2022-09-09T16:33:07;5.85;;;2.80;;
12968;SDS011;6549;53.128;8.182;2022-09-09T16:36:09;4.47;;;2.30;;
12968;SDS011;6549;53.128;8.182;2022-09-09T16:39:16;5.35;;;2.83;;
12968;SDS011;6549;53.128;8.182;2022-09-09T16:42:17;4.88;;;2.65;;
12968;SDS011;6549;53.128;8.182;2022-09-09T16:45:18;5.40;;;2.90;;
12968;SDS011;6549;53.128;8.182;2022-09-09T16:48:18;4.07;;;3.00;;
12968;SDS011;6549;53.128;8.182;2022-09-09T16:51:21;5.18;;;3.10;;
12968;SDS011;6549;53.128;8.182;2022-09-09T16:54:23;10.32;;;4.10;;
12968;SDS011;6549;53.128;8.182;2022-09-09T16:57:26;5.53;;;4.13;;
12968;SDS011;6549;53.128;8.182;2022-09-09T17:00:30;6.70;;;4.20;;
12968;SDS011;6549;53.128;8.182;2022-09-09T17:03:31;8.32;;;4.78;;
12968;SDS011;6549;53.128;8.182;2022-09-09T17:06:32;8.60;;;4.53;;
12968;SDS011;6549;53.128;8.182;2022-09-09T17:09:38;6.28;;;4.57;;
12968;SDS011;6549;53.128;8.182;2022-09-09T17:12:38;6.25;;;4.72;;
12968;SDS011;6549;53.128;8.182;2022-09-09T17:15:40;6.82;;;4.78;;
12968;SDS011;6549;53.128;8.182;2022-09-09T17:18:42;9.10;;;4.85;;
12968;SDS011;6549;53.128;8.182;2022-09-09T17:21:42;5.45;;;3.95;;
12968;SDS011;6549;53.128;8.182;2022-09-09T17:24:43;6.90;;;4.18;;
12968;SDS011;6549;53.128;8.182;2022-09-09T17:27:44;6.07;;;4.28;;
12968;SDS011;6549;53.128;8.182;2022-09-09T17:30:44;7.68;;;4.38;;
12968;SDS011;6549;53.128;8.182;2022-09-09T17:33:46;4.95;;;4.10;;
12968;SDS011;6549;53.128;8.182;2022-09-09T17:36:47;7.18;;;3.75;;
12968;SDS011;6549;53.128;8.182;2022-09-09T17:39:48;4.32;;;3.60;;
12968;SDS011;6549;53.128;8.182;2022-09-09T17:42:49;6.55;;;3.80;;
12968;SDS011;6549;53.128;8.182;2022-09-09T17:45:49;5.45;;;3.90;;
12968;SDS011;6549;53.128;8.182;2022-09-09T17:48:50;6.00;;;3.17;;
12968;SDS011;6549;53.128;8.182;2022-09-09T17:51:54;5.03;;;3.40;;
12968;SDS011;6549;53.128;8.182;2022-09-09T17:54:56;5.30;;;3.38;;
12968;SDS011;6549;53.128;8.182;2022-09-09T17:57:56;5.55;;;3.20;;
12968;SDS011;6549;53.128;8.182;2022-09-09T18:01:01;6.50;;;3.45;;
12968;SDS011;6549;53.128;8.182;2022-09-09T18:04:05;6.55;;;3.83;;
12968;SDS011;6549;53.128;8.182;2022-09-09T18:07:07;6.75;;;3.97;;
12968;SDS011;6549;53.128;8.182;2022-09-09T18:10:07;6.00;;;3.95;;
12968;SDS011;6549;53.128;8.182;2022-09-09T18:13:08;6.22;;;4.18;;
12968;SDS011;6549;53.128;8.182;2022-09-09T18:16:09;5.97;;;4.20;;
12968;SDS011;6549;53.128;8.182;2022-09-09T18:19:11;8.20;;;4.28;;
12968;SDS011;6549;53.128;8.182;2022-09-09T18:22:12;5.15;;;4.07;;
12968;SDS011;6549;53.128;8.182;2022-09-09T18:25:13;4.82;;;3.60;;
12968;SDS011;6549;53.128;8.182;2022-09-09T18:28:13;5.93;;;3.47;;
12968;SDS011;6549;53.128;8.182;2022-09-09T18:31:15;6.82;;;3.95;;
12968;SDS011;6549;53.128;8.182;2022-09-09T18:34:17;3.95;;;3.50;;
12968;SDS011;6549;53.128;8.182;2022-09-09T18:37:19;4.18;;;3.20;;
12968;SDS011;6549;53.128;8.182;2022-09-09T18:40:20;4.63;;;3.20;;
12968;SDS011;6549;53.128;8.182;2022-09-09T18:43:20;4.38;;;3.20;;
12968;SDS011;6549;53.128;8.182;2022-09-09T18:46:21;6.65;;;3.47;;
12968;SDS011;6549;53.128;8.182;2022-09-09T18:49:23;5.50;;;3.70;;
12968;SDS011;6549;53.128;8.182;2022-09-09T18:52:24;3.83;;;3.05;;
12968;SDS011;6549;53.128;8.182;2022-09-09T18:55:24;7.05;;;3.42;;
12968;SDS011;6549;53.128;8.182;2022-09-09T18:58:24;4.50;;;3.22;;
12968;SDS011;6549;53.128;8.182;2022-09-09T19:01:25;5.85;;;3.30;;
12968;SDS011;6549;53.128;8.182;2022-09-09T19:04:26;4.60;;;3.17;;
12968;SDS011;6549;53.128;8.182;2022-09-09T19:07:26;4.43;;;3.00;;
12968;SDS011;6549;53.128;8.182;2022-09-09T19:10:27;5.18;;;3.17;;
12968;SDS011;6549;53.128;8.182;2022-09-09T19:13:28;5.40;;;3.00;;
12968;SDS011;6549;53.128;8.182;2022-09-09T19:16:29;4.50;;;3.10;;
12968;SDS011;6549;53.128;8.182;2022-09-09T19:19:32;5.93;;;3.28;;
12968;SDS011;6549;53.128;8.182;2022-09-09T19:22:33;5.35;;;3.35;;
12968;SDS011;6549;53.128;8.182;2022-09-09T19:25:34;4.65;;;3.30;;
12968;SDS011;6549;53.128;8.182;2022-09-09T19:28:36;4.38;;;3.03;;
12968;SDS011;6549;53.128;8.182;2022-09-09T19:34:39;4.53;;;3.30;;
12968;SDS011;6549;53.128;8.182;2022-09-09T19:37:40;4.18;;;2.97;;
12968;SDS011;6549;53.128;8.182;2022-09-09T19:40:41;4.15;;;3.40;;
12968;SDS011;6549;53.128;8.182;2022-09-09T19:43:41;5.03;;;3.35;;
12968;SDS011;6549;53.128;8.182;2022-09-09T19:46:42;4.05;;;2.85;;
12968;SDS011;6549;53.128;8.182;2022-09-09T19:49:44;5.00;;;3.45;;
12968;SDS011;6549;53.128;8.182;2022-09-09T19:52:45;6.43;;;3.35;;
12968;SDS011;6549;53.128;8.182;2022-09-09T19:55:49;5.70;;;3.53;;
12968;SDS011;6549;53.128;8.182;2022-09-09T19:58:50;4.15;;;3.67;;
12968;SDS011;6549;53.128;8.182;2022-09-09T20:01:51;4.72;;;3.60;;
12968;SDS011;6549;53.128;8.182;2022-09-09T20:04:51;5.90;;;4.10;;
12968;SDS011;6549;53.128;8.182;2022-09-09T20:10:54;4.20;;;3.80;;
12968;SDS011;6549;53.128;8.182;2022-09-09T20:13:55;5.35;;;3.85;;
12968;SDS011;6549;53.128;8.182;2022-09-09T20:16:55;7.35;;;4.30;;
12968;SDS011;6549;53.128;8.182;2022-09-09T20:19:56;6.63;;;4.22;;
12968;SDS011;6549;53.128;8.182;2022-09-09T20:22:56;5.38;;;4.30;;
12968;SDS011;6549;53.128;8.182;2022-09-09T20:26:00;6.65;;;4.50;;
12968;SDS011;6549;53.128;8.182;2022-09-09T20:29:03;6.63;;;5.13;;
12968;SDS011;6549;53.128;8.182;2022-09-09T20:35:05;7.25;;;5.07;;
12968;SDS011;6549;53.128;8.182;2022-09-09T20:38:05;7.45;;;5.32;;
12968;SDS011;6549;53.128;8.182;2022-09-09T20:41:06;5.43;;;4.32;;
12968;SDS011;6549;53.128;8.182;2022-09-09T20:44:20;7.28;;;4.97;;
12968;SDS011;6549;53.128;8.182;2022-09-09T20:47:23;8.20;;;4.97;;